createdAt,value
2018-02-21T00:01:23.120Z,97.40
2018-02-21T00:03:50.793Z,97.50
2018-02-21T00:06:18.452Z,97.40
2018-02-21T00:08:46.108Z,97.20
2018-02-21T00:11:14.489Z,97.20
2018-02-21T00:13:42.885Z,97.30
2018-02-21T00:16:11.315Z,97.00
2018-02-21T00:18:38.966Z,97.10
2018-02-21T00:21:06.557Z,97.00
2018-02-21T00:23:34.214Z,96.80
2018-02-21T00:26:01.881Z,96.80
2018-02-21T00:28:29.512Z,96.80
2018-02-21T00:30:57.131Z,96.80
2018-02-21T00:33:25.528Z,97.20
2018-02-21T00:35:53.324Z,97.20
2018-02-21T00:38:20.999Z,97.30
2018-02-21T00:40:48.600Z,97.30
2018-02-21T00:43:16.228Z,97.40
2018-02-21T00:45:43.876Z,97.50
2018-02-21T00:48:12.244Z,97.80
2018-02-21T00:50:39.984Z,97.80
2018-02-21T00:53:07.596Z,97.90
2018-02-21T00:55:35.221Z,98.10
2018-02-21T00:58:02.816Z,98.20
2018-02-21T01:00:30.415Z,98.10
2018-02-21T01:02:58.038Z,98.20
2018-02-21T01:05:25.674Z,98.20
2018-02-21T01:07:53.276Z,98.00
2018-02-21T01:10:20.906Z,97.90
2018-02-21T01:12:48.541Z,97.90
2018-02-21T01:15:16.173Z,97.80
2018-02-21T01:17:44.548Z,98.00
2018-02-21T01:20:12.222Z,98.00
2018-02-21T01:22:39.850Z,98.00
2018-02-21T01:25:07.486Z,98.20
2018-02-21T01:27:35.918Z,98.30
2018-02-21T01:30:03.537Z,98.30
2018-02-21T01:32:31.207Z,98.30
2018-02-21T01:34:58.783Z,98.20
2018-02-21T01:37:26.399Z,98.00
2018-02-21T01:39:54.004Z,98.00
2018-02-21T01:42:21.646Z,98.00
2018-02-21T01:44:49.253Z,97.90
2018-02-21T01:47:16.879Z,97.80
2018-02-21T01:49:44.476Z,97.80
2018-02-21T01:52:12.116Z,97.80
2018-02-21T01:54:39.718Z,97.90
2018-02-21T01:57:07.373Z,97.90
2018-02-21T01:59:34.976Z,97.90
2018-02-21T02:02:02.599Z,97.90
2018-02-21T02:04:31.014Z,97.90
2018-02-21T02:06:58.676Z,97.80
2018-02-21T02:09:27.064Z,97.60
2018-02-21T02:11:55.584Z,97.60
2018-02-21T02:14:23.232Z,97.60
2018-02-21T02:16:51.626Z,97.30
2018-02-21T02:19:20.029Z,97.20
2018-02-21T02:21:47.657Z,97.20
2018-02-21T02:24:15.293Z,97.20
2018-02-21T02:26:42.883Z,97.10
2018-02-21T02:29:10.537Z,97.10
2018-02-21T02:31:38.129Z,97.20
2018-02-21T02:34:05.752Z,97.30
2018-02-21T02:36:34.116Z,97.40
2018-02-21T02:39:13.760Z,97.40
2018-02-21T02:41:41.380Z,97.50
2018-02-21T02:44:09.784Z,97.20
2018-02-21T02:46:37.364Z,97.20
2018-02-21T02:49:04.989Z,97.10
2018-02-21T02:51:32.577Z,97.20
2018-02-21T02:54:00.980Z,97.10
2018-02-21T02:56:28.602Z,97.00
2018-02-21T02:58:56.218Z,97.00
2018-02-21T03:01:24.602Z,97.20
2018-02-21T03:03:52.973Z,97.20
2018-02-21T03:06:20.592Z,97.20
2018-02-21T03:08:48.201Z,97.20
2018-02-21T03:11:15.860Z,97.20
2018-02-21T03:13:43.466Z,97.20
2018-02-21T03:16:11.146Z,97.30
2018-02-21T03:18:38.736Z,97.40
2018-02-21T03:21:07.129Z,97.50
2018-02-21T03:23:35.495Z,97.60
2018-02-21T03:26:15.719Z,97.50
2018-02-21T03:28:43.399Z,97.60
2018-02-21T03:31:11.040Z,97.90
2018-02-21T03:33:39.387Z,98.50
2018-02-21T03:36:07.055Z,98.50
2018-02-21T03:38:35.609Z,98.40
2018-02-21T03:41:03.232Z,98.60
2018-02-21T03:43:30.816Z,98.70
2018-02-21T03:45:58.704Z,98.70
2018-02-21T03:48:26.291Z,98.70
2018-02-21T03:50:54.719Z,98.60
2018-02-21T03:53:22.320Z,98.50
2018-02-21T03:55:49.976Z,98.40
2018-02-21T03:58:17.592Z,98.50
2018-02-21T04:00:45.948Z,99.10
2018-02-21T04:03:13.572Z,99.10
2018-02-21T04:05:41.956Z,99.40
2018-02-21T04:08:10.368Z,99.90
2018-02-21T04:10:38.007Z,99.90
2018-02-21T04:13:06.411Z,99.90
2018-02-21T04:15:34.783Z,99.90
2018-02-21T04:18:02.519Z,99.90
2018-02-21T04:20:30.114Z,99.80
2018-02-21T04:22:57.813Z,99.80
2018-02-21T04:25:25.422Z,99.90
2018-02-21T04:27:53.054Z,99.70
2018-02-21T04:30:20.890Z,99.50
2018-02-21T04:32:48.513Z,99.60
2018-02-21T04:35:16.103Z,99.90
2018-02-21T04:37:44.503Z,99.90
2018-02-21T04:40:12.104Z,99.90
2018-02-21T04:42:39.754Z,99.90
2018-02-21T04:45:07.352Z,99.90
2018-02-21T04:47:35.024Z,99.90
2018-02-21T04:50:02.679Z,99.90
2018-02-21T04:52:30.284Z,99.90
2018-02-21T04:58:24.427Z,99.90
2018-02-21T05:00:51.966Z,99.90
2018-02-21T05:03:19.515Z,99.90
2018-02-21T05:05:47.847Z,99.60
2018-02-21T05:08:15.397Z,99.60
2018-02-21T05:10:42.966Z,99.40
2018-02-21T05:13:10.642Z,99.20
2018-02-21T05:15:38.211Z,99.00
2018-02-21T05:18:05.755Z,99.30
2018-02-21T05:20:34.079Z,99.60
2018-02-21T05:23:01.620Z,99.70
2018-02-21T05:25:29.952Z,99.60
2018-02-21T05:27:57.496Z,99.60
2018-02-21T05:30:25.052Z,99.60
2018-02-21T05:32:54.741Z,99.60
2018-02-21T05:35:22.307Z,99.60
2018-02-21T05:37:49.852Z,99.00
2018-02-21T05:40:17.519Z,99.00
2018-02-21T05:42:45.059Z,99.40
2018-02-21T05:45:13.481Z,98.90
2018-02-21T05:47:41.014Z,98.90
2018-02-21T05:50:09.319Z,98.90
2018-02-21T05:52:37.648Z,98.20
2018-02-21T05:55:05.195Z,98.20
2018-02-21T05:57:32.759Z,98.50
2018-02-21T06:00:00.311Z,98.70
2018-02-21T06:02:28.640Z,99.00
2018-02-21T06:05:00.052Z,99.00
2018-02-21T06:07:27.620Z,98.70
2018-02-21T06:09:55.163Z,98.40
2018-02-21T06:12:22.727Z,98.00
2018-02-21T06:14:50.270Z,97.00
2018-02-21T06:17:17.842Z,97.00
2018-02-21T06:19:45.383Z,96.40
2018-02-21T06:22:12.960Z,96.90
2018-02-21T06:24:40.500Z,97.70
2018-02-21T06:27:08.064Z,97.20
2018-02-21T06:29:35.615Z,96.80
2018-02-21T06:32:03.244Z,97.00
2018-02-21T06:34:30.791Z,97.60
2018-02-21T06:36:58.339Z,97.60
2018-02-21T06:39:25.899Z,97.30
2018-02-21T06:41:53.445Z,97.60
2018-02-21T06:44:21.032Z,97.50
2018-02-21T06:46:48.576Z,97.50
2018-02-21T06:49:16.908Z,97.80
2018-02-21T06:51:44.456Z,97.60
2018-02-21T06:54:12.035Z,97.60
2018-02-21T06:56:39.631Z,97.30
2018-02-21T06:59:07.196Z,96.90
2018-02-21T07:01:34.743Z,97.10
2018-02-21T07:04:03.076Z,97.10
2018-02-21T07:06:30.626Z,97.10
2018-02-21T07:08:58.189Z,96.70
2018-02-21T07:11:25.727Z,96.60
2018-02-21T07:13:54.067Z,95.30
2018-02-21T07:16:21.611Z,95.50
2018-02-21T07:18:49.934Z,95.80
2018-02-21T07:21:17.470Z,95.80
2018-02-21T07:23:45.052Z,94.40
2018-02-21T07:26:12.608Z,93.90
2018-02-21T07:28:40.911Z,93.10
2018-02-21T07:31:08.471Z,93.10
2018-02-21T07:33:36.780Z,92.70
2018-02-21T07:36:04.343Z,92.70
2018-02-21T07:38:31.878Z,91.60
2018-02-21T07:40:59.467Z,91.80
2018-02-21T07:43:31.424Z,88.00
2018-02-21T07:45:59.151Z,88.00
2018-02-21T07:48:26.702Z,81.00
2018-02-21T07:50:55.069Z,82.50
2018-02-21T07:53:22.656Z,82.40
2018-02-21T07:55:51.052Z,86.10
2018-02-21T07:58:23.665Z,81.60
2018-02-21T08:00:51.317Z,81.60
2018-02-21T08:03:18.908Z,82.90
2018-02-21T08:05:46.564Z,82.70
2018-02-21T08:08:14.157Z,86.40
2018-02-21T08:10:41.756Z,88.70
2018-02-21T08:13:23.423Z,89.80
2018-02-21T08:15:51.043Z,90.30
2018-02-21T08:18:18.660Z,91.20
2018-02-21T08:20:46.305Z,91.70
2018-02-21T08:23:13.937Z,91.60
2018-02-21T08:25:41.564Z,91.40
2018-02-21T08:28:09.971Z,88.10
2018-02-21T08:30:37.560Z,88.80
2018-02-21T08:33:05.226Z,86.60
2018-02-21T08:35:52.617Z,70.50
2018-02-21T08:38:20.228Z,70.40
2018-02-21T08:40:47.845Z,61.50
2018-02-21T08:43:15.476Z,64.80
2018-02-21T08:45:43.064Z,59.90
2018-02-21T08:48:10.684Z,55.10
2018-02-21T08:50:38.309Z,49.50
2018-02-21T08:53:05.936Z,49.50
2018-02-21T08:55:33.531Z,47.30
2018-02-21T08:58:01.926Z,47.50
2018-02-21T09:00:29.527Z,47.40
2018-02-21T09:02:57.167Z,48.80
2018-02-21T09:11:19.600Z,45.20
2018-02-21T09:13:47.264Z,46.70
2018-02-21T09:16:14.856Z,44.20
2018-02-21T09:18:42.509Z,45.40
2018-02-21T09:21:10.885Z,46.10
2018-02-21T09:23:39.316Z,41.70
2018-02-21T09:26:06.925Z,41.40
2018-02-21T09:28:34.580Z,39.50
2018-02-21T09:31:02.200Z,38.90
2018-02-21T09:33:30.608Z,39.30
2018-02-21T09:35:58.200Z,39.20
2018-02-21T09:38:25.936Z,38.40
2018-02-21T09:40:53.528Z,37.20
2018-02-21T09:43:21.112Z,42.80
2018-02-21T09:45:48.793Z,42.10
2018-02-21T09:48:16.399Z,38.30
2018-02-21T09:50:44.771Z,36.40
2018-02-21T09:53:12.403Z,38.00
2018-02-21T09:55:40.760Z,38.40
2018-02-21T09:58:08.465Z,38.30
2018-02-21T10:00:36.864Z,36.50
2018-02-21T10:03:05.297Z,33.60
2018-02-21T10:05:33.046Z,33.60
2018-02-21T10:08:00.667Z,37.70
2018-02-21T10:10:28.392Z,37.80
2018-02-21T10:12:55.906Z,35.20
2018-02-21T10:15:23.524Z,34.60
2018-02-21T10:17:51.908Z,39.90
2018-02-21T10:20:21.234Z,37.40
2018-02-21T10:22:48.774Z,37.30
2018-02-21T10:25:16.376Z,35.40
2018-02-21T10:27:43.944Z,35.70
2018-02-21T10:30:11.608Z,40.30
2018-02-21T10:32:40.012Z,36.50
2018-02-21T10:35:07.633Z,36.40
2018-02-21T10:37:35.293Z,38.30
2018-02-21T10:40:02.896Z,39.00
2018-02-21T10:42:42.407Z,40.20
2018-02-21T10:45:10.012Z,36.30
2018-02-21T10:47:37.601Z,38.80
2018-02-21T10:50:05.195Z,39.40
2018-02-21T10:52:33.596Z,41.60
2018-02-21T10:55:01.181Z,41.50
2018-02-21T10:57:28.775Z,39.40
2018-02-21T10:59:56.428Z,36.50
2018-02-21T11:02:24.052Z,35.60
2018-02-21T11:04:51.661Z,35.70
2018-02-21T11:07:19.328Z,39.60
2018-02-21T11:09:47.700Z,40.90
2018-02-21T11:12:15.302Z,40.80
2018-02-21T11:14:42.956Z,44.70
2018-02-21T11:17:11.339Z,44.80
2018-02-21T11:19:39.692Z,46.00
2018-02-21T11:22:07.320Z,46.00
2018-02-21T11:24:34.944Z,45.50
2018-02-21T11:27:02.545Z,44.00
2018-02-21T11:29:31.084Z,38.00
2018-02-21T11:31:58.695Z,37.30
2018-02-21T11:34:26.333Z,35.40
2018-02-21T11:36:53.912Z,31.60
2018-02-21T11:39:21.534Z,32.00
2018-02-21T11:41:49.892Z,34.00
2018-02-21T11:44:17.516Z,33.90
2018-02-21T11:46:45.113Z,33.30
2018-02-21T11:49:12.744Z,32.80
2018-02-21T11:51:40.600Z,32.50
2018-02-21T11:54:08.987Z,30.10
2018-02-21T11:56:36.582Z,30.00
2018-02-21T11:59:05.090Z,29.80
2018-02-21T12:01:33.516Z,34.10
2018-02-21T12:04:01.143Z,34.00
2018-02-21T12:06:29.525Z,33.60
2018-02-21T12:08:57.121Z,33.40
2018-02-21T12:11:25.464Z,33.20
2018-02-21T12:13:53.080Z,33.10
2018-02-21T12:16:21.442Z,35.00
2018-02-21T12:18:49.079Z,34.90
2018-02-21T12:21:16.677Z,34.20
2018-02-21T12:23:44.305Z,34.80
2018-02-21T12:26:11.917Z,32.80
2018-02-21T12:28:39.561Z,30.00
2018-02-21T12:31:08.145Z,37.00
2018-02-21T12:33:35.763Z,32.60
2018-02-21T12:36:03.396Z,34.50
2018-02-21T12:38:31.081Z,34.70
2018-02-21T12:41:04.720Z,29.70
2018-02-21T12:43:32.329Z,31.50
2018-02-21T12:46:00.013Z,32.20
2018-02-21T12:48:28.582Z,32.00
2018-02-21T12:50:56.253Z,32.00
2018-02-21T12:53:23.889Z,32.70
2018-02-21T12:55:51.552Z,30.30
2018-02-21T12:58:19.146Z,28.40
2018-02-21T13:00:46.792Z,29.10
2018-02-21T13:03:14.454Z,29.40
2018-02-21T13:05:42.874Z,28.70
2018-02-21T13:08:10.574Z,28.70
2018-02-21T13:10:38.247Z,30.80
2018-02-21T13:13:06.581Z,29.40
2018-02-21T13:15:36.799Z,28.00
2018-02-21T13:18:04.421Z,28.00
2018-02-21T13:20:32.064Z,26.40
2018-02-21T13:23:00.484Z,24.50
2018-02-21T13:25:28.056Z,24.40
2018-02-21T13:27:55.673Z,23.50
2018-02-21T13:30:23.755Z,24.80
2018-02-21T13:32:51.665Z,25.30
2018-02-21T13:35:20.053Z,27.10
2018-02-21T13:37:48.483Z,26.60
2018-02-21T13:40:16.262Z,26.60
2018-02-21T13:42:43.888Z,26.80
2018-02-21T13:45:11.496Z,26.50
2018-02-21T13:47:39.142Z,26.80
2018-02-21T13:50:07.512Z,25.90
2018-02-21T13:52:43.420Z,25.90
2018-02-21T13:55:11.042Z,25.10
2018-02-21T13:57:38.747Z,25.40
2018-02-21T14:00:06.328Z,26.50
2018-02-21T14:02:34.757Z,30.20
2018-02-21T14:05:02.379Z,30.20
2018-02-21T14:07:30.023Z,30.30
2018-02-21T14:09:57.641Z,32.90
2018-02-21T14:12:26.036Z,32.30
2018-02-21T14:14:54.409Z,31.70
2018-02-21T14:17:22.870Z,30.80
2018-02-21T14:19:50.536Z,30.80
2018-02-21T14:22:18.165Z,29.60
2018-02-21T14:24:46.623Z,29.60
2018-02-21T14:27:14.262Z,30.00
2018-02-21T14:29:42.108Z,29.50
2018-02-21T14:32:10.467Z,34.70
2018-02-21T14:34:38.072Z,34.70
2018-02-21T14:37:06.445Z,34.40
2018-02-21T14:39:34.056Z,34.40
2018-02-21T14:42:01.644Z,34.60
2018-02-21T14:44:34.550Z,34.10
2018-02-21T14:47:03.160Z,33.60
2018-02-21T14:49:30.818Z,34.00
2018-02-21T14:51:58.407Z,34.40
2018-02-21T14:54:26.076Z,34.50
2018-02-21T14:56:53.688Z,34.80
2018-02-21T14:59:22.058Z,34.10
2018-02-21T15:01:49.644Z,34.00
2018-02-21T15:04:28.851Z,40.90
2018-02-21T15:06:56.452Z,40.60
2018-02-21T15:09:24.101Z,42.50
2018-02-21T15:11:51.803Z,41.00
2018-02-21T15:14:19.433Z,41.50
2018-02-21T15:16:47.048Z,41.50
2018-02-21T15:19:15.495Z,39.40
2018-02-21T15:21:43.273Z,39.30
2018-02-21T15:24:10.974Z,39.70
2018-02-21T15:26:38.588Z,42.20
2018-02-21T15:29:07.048Z,42.00
2018-02-21T15:31:34.662Z,41.40
2018-02-21T15:34:02.319Z,41.20
2018-02-21T15:36:30.716Z,41.60
2018-02-21T15:38:59.137Z,41.10
2018-02-21T15:41:26.767Z,41.10
2018-02-21T15:43:54.372Z,41.00
2018-02-21T15:46:21.996Z,43.40
2018-02-21T15:48:49.576Z,44.70
2018-02-21T15:51:17.189Z,46.60
2018-02-21T15:53:44.784Z,48.70
2018-02-21T15:56:12.556Z,50.30
2018-02-21T15:58:40.123Z,51.90
2018-02-21T16:01:07.788Z,54.00
2018-02-21T16:03:35.431Z,54.40
2018-02-21T16:06:03.992Z,55.50
2018-02-21T16:08:31.632Z,55.30
2018-02-21T16:10:59.256Z,56.80
2018-02-21T16:13:26.896Z,58.50
2018-02-21T16:15:54.568Z,58.90
2018-02-21T16:18:22.236Z,59.80
2018-02-21T16:20:50.016Z,60.70
2018-02-21T16:23:17.664Z,61.70
2018-02-21T16:25:45.267Z,64.00
2018-02-21T16:28:12.942Z,64.60
2018-02-21T16:30:40.561Z,65.80
2018-02-21T16:33:08.965Z,68.70
2018-02-21T16:35:36.641Z,68.60
2018-02-21T16:38:05.085Z,69.80
2018-02-21T16:40:32.681Z,69.80
2018-02-21T16:43:00.316Z,69.50
2018-02-21T16:45:27.940Z,70.50
2018-02-21T16:47:56.331Z,70.10
2018-02-21T16:50:24.744Z,71.20
2018-02-21T16:52:52.344Z,71.10
2018-02-21T16:55:19.997Z,71.30
2018-02-21T16:57:47.594Z,71.10
2018-02-21T17:00:15.252Z,72.20
2018-02-21T17:02:42.864Z,72.30
2018-02-21T17:05:10.506Z,71.70
2018-02-21T17:07:38.109Z,72.20
2018-02-21T17:10:05.766Z,71.70
2018-02-21T17:12:33.459Z,72.10
2018-02-21T17:15:01.154Z,73.20
2018-02-21T17:17:29.496Z,75.40
2018-02-21T17:19:57.157Z,74.50
2018-02-21T17:22:24.804Z,76.60
2018-02-21T17:24:53.187Z,77.20
2018-02-21T17:27:20.832Z,77.20
2018-02-21T17:29:54.284Z,78.70
2018-02-21T17:32:22.645Z,80.20
2018-02-21T17:34:50.251Z,80.20
2018-02-21T17:37:18.603Z,80.30
2018-02-21T17:39:46.237Z,80.20
2018-02-21T17:42:13.850Z,80.20
2018-02-21T17:44:52.854Z,80.10
2018-02-21T17:47:20.502Z,80.40
2018-02-21T17:49:48.097Z,81.70
2018-02-21T17:52:15.777Z,82.70
2018-02-21T17:54:43.404Z,83.80
2018-02-21T17:57:11.848Z,83.40
2018-02-21T17:59:39.428Z,83.40
2018-02-21T18:02:07.065Z,83.40
2018-02-21T18:04:34.705Z,83.10
2018-02-21T18:07:02.320Z,83.10
2018-02-21T18:09:29.921Z,83.20
2018-02-21T18:11:57.635Z,83.20
2018-02-21T18:14:26.026Z,84.60
2018-02-21T18:16:54.456Z,86.10
2018-02-21T18:19:22.120Z,85.30
2018-02-21T18:21:49.824Z,85.50
2018-02-21T18:24:17.512Z,85.40
2018-02-21T18:26:45.266Z,86.30
2018-02-21T18:29:13.644Z,86.70
2018-02-21T18:31:41.276Z,87.00
2018-02-21T18:34:12.940Z,87.50
2018-02-21T18:36:40.539Z,87.40
2018-02-21T18:39:08.152Z,87.50
2018-02-21T18:41:35.755Z,87.80
2018-02-21T18:44:03.372Z,87.10
2018-02-21T18:46:36.898Z,87.60
2018-02-21T18:49:04.528Z,88.10
2018-02-21T18:51:32.934Z,88.20
2018-02-21T18:54:01.401Z,88.40
2018-02-21T18:56:29.061Z,87.60
2018-02-21T18:58:56.700Z,88.10
2018-02-21T19:01:24.305Z,88.00
2018-02-21T19:03:51.961Z,88.10
2018-02-21T19:06:19.581Z,89.00
2018-02-21T19:08:47.993Z,88.90
2018-02-21T19:11:15.600Z,88.80
2018-02-21T19:13:43.232Z,89.10
2018-02-21T19:16:11.614Z,90.00
2018-02-21T19:18:40.081Z,89.70
2018-02-21T19:21:07.686Z,89.60
2018-02-21T19:23:36.108Z,88.80
2018-02-21T19:26:03.719Z,88.70
2018-02-21T19:28:31.377Z,87.80
2018-02-21T19:30:59.239Z,87.90
2018-02-21T19:33:26.901Z,87.80
2018-02-21T19:35:54.501Z,88.00
2018-02-21T19:38:22.165Z,88.20
2018-02-21T19:40:49.824Z,88.10
2018-02-21T19:43:17.488Z,88.20
2018-02-21T19:45:45.179Z,87.60
2018-02-21T19:48:12.846Z,87.60
2018-02-21T19:50:40.532Z,87.30
2018-02-21T19:53:08.189Z,86.70
2018-02-21T19:55:35.852Z,86.30
2018-02-21T19:58:03.485Z,85.90
2018-02-21T20:00:31.080Z,86.10
2018-02-21T20:02:59.500Z,85.40
2018-02-21T20:05:27.198Z,85.30
2018-02-21T20:07:54.902Z,85.20
2018-02-21T20:10:22.495Z,85.20
2018-02-21T20:12:50.897Z,84.80
2018-02-21T20:15:19.319Z,85.50
2018-02-21T20:17:46.947Z,85.40
2018-02-21T20:20:15.325Z,85.40
2018-02-21T20:22:43.066Z,85.40
2018-02-21T20:25:10.783Z,85.40
2018-02-21T20:27:38.370Z,85.60
2018-02-21T20:30:06.789Z,85.70
2018-02-21T20:32:35.595Z,85.70
2018-02-21T20:35:03.260Z,86.10
2018-02-21T20:37:31.727Z,86.30
2018-02-21T20:40:00.164Z,86.30
2018-02-21T20:42:27.815Z,86.20
2018-02-21T20:44:55.452Z,86.30
2018-02-21T20:47:23.148Z,86.80
2018-02-21T20:49:51.687Z,87.50
2018-02-21T20:52:20.243Z,87.40
2018-02-21T20:57:42.217Z,87.80
2018-02-21T21:00:11.508Z,87.90
2018-02-21T21:02:39.322Z,88.10
2018-02-21T21:05:07.680Z,88.60
2018-02-21T21:07:36.061Z,88.60
2018-02-21T21:10:03.716Z,88.50
2018-02-21T21:12:31.315Z,88.70
2018-02-21T21:14:59.058Z,88.70
2018-02-21T21:17:26.727Z,89.40
2018-02-21T21:19:54.416Z,88.60
2018-02-21T21:22:22.040Z,89.20
2018-02-21T21:24:49.740Z,89.50
2018-02-21T21:27:17.420Z,89.50
2018-02-21T21:29:45.037Z,89.00
2018-02-21T21:32:12.654Z,88.30
2018-02-21T21:34:40.276Z,87.80
2018-02-21T21:37:07.880Z,87.00
2018-02-21T21:39:36.316Z,85.50
2018-02-21T21:42:03.969Z,85.50
2018-02-21T21:44:31.597Z,85.20
2018-02-21T21:46:59.179Z,85.40
2018-02-21T21:49:32.867Z,85.50
2018-02-21T21:51:55.322Z,85.40
2018-02-21T21:54:22.973Z,85.10
2018-02-21T21:56:50.571Z,85.60
2018-02-21T21:59:18.194Z,85.80
2018-02-21T22:01:45.783Z,86.00
2018-02-21T22:04:13.400Z,86.10
2018-02-21T22:06:41.767Z,86.50
2018-02-21T22:09:09.413Z,86.40
2018-02-21T22:11:37.036Z,86.80
2018-02-21T22:14:05.447Z,88.00
2018-02-21T22:16:33.152Z,87.50
2018-02-21T22:19:00.881Z,87.60
2018-02-21T22:21:28.529Z,87.30
2018-02-21T22:23:56.143Z,87.30
2018-02-21T22:26:24.532Z,88.40
2018-02-21T22:28:52.968Z,88.60
2018-02-21T22:31:20.636Z,88.60
2018-02-21T22:33:48.248Z,89.00
2018-02-21T22:36:15.865Z,89.60
2018-02-21T22:38:43.512Z,88.60
2018-02-21T22:41:11.908Z,89.50
2018-02-21T22:43:40.340Z,89.50
2018-02-21T22:46:08.116Z,89.50
2018-02-21T22:48:35.781Z,89.50
2018-02-21T22:51:03.436Z,89.80
2018-02-21T22:53:31.111Z,90.10
2018-02-21T22:55:58.735Z,90.40
2018-02-21T22:58:26.336Z,90.30
2018-02-21T23:00:54.733Z,90.20
2018-02-21T23:03:23.088Z,90.30
2018-02-21T23:05:50.748Z,90.30
2018-02-21T23:08:18.344Z,90.40
2018-02-21T23:10:45.983Z,90.40
2018-02-21T23:13:13.669Z,90.40
2018-02-21T23:15:41.331Z,90.10
2018-02-21T23:18:08.941Z,90.20
2018-02-21T23:20:36.594Z,89.80
2018-02-21T23:23:04.188Z,89.90
2018-02-21T23:25:31.928Z,90.00
2018-02-21T23:27:59.528Z,90.10
2018-02-21T23:30:27.152Z,90.10
2018-02-21T23:32:54.751Z,90.20
2018-02-21T23:35:22.444Z,90.20
2018-02-21T23:37:50.032Z,90.40
2018-02-21T23:40:18.432Z,90.70
2018-02-21T23:42:46.022Z,90.80
2018-02-21T23:45:14.437Z,90.90
2018-02-21T23:47:42.064Z,90.90
2018-02-21T23:50:09.693Z,90.70
2018-02-21T23:52:37.288Z,90.50
2018-02-21T23:55:04.903Z,90.70
2018-02-21T23:57:33.304Z,90.60
